createdAt,value
2023-02-18T00:01:54.896Z,79.11
2023-02-18T00:04:22.928Z,77.52
2023-02-18T00:06:50.781Z,76.07
2023-02-18T00:09:18.633Z,78.57
2023-02-18T00:11:47.944Z,77.56
2023-02-18T00:14:17.433Z,77.50
2023-02-18T00:16:46.369Z,77.39
2023-02-18T00:19:17.623Z,77.96
2023-02-18T00:21:46.615Z,77.68
2023-02-18T00:24:16.489Z,78.61
2023-02-18T00:26:45.436Z,79.35
2023-02-18T00:29:14.810Z,78.87
2023-02-18T00:31:43.034Z,78.88
2023-02-18T00:34:12.816Z,78.65
2023-02-18T00:36:41.130Z,78.82
2023-02-18T00:39:11.421Z,77.67
2023-02-18T00:41:40.761Z,79.43
2023-02-18T00:44:08.800Z,77.40
2023-02-18T00:46:38.973Z,78.83
2023-02-18T00:49:07.802Z,78.19
2023-02-18T00:51:36.878Z,79.18
2023-02-18T00:54:05.093Z,78.75
2023-02-18T00:56:33.406Z,79.05
2023-02-18T00:59:01.436Z,79.75
2023-02-18T01:01:29.399Z,79.82
2023-02-18T01:03:58.915Z,80.12
2023-02-18T01:06:26.848Z,79.31
2023-02-18T01:08:54.724Z,80.23
2023-02-18T01:11:23.792Z,79.29
2023-02-18T01:13:52.266Z,78.94
2023-02-18T01:16:20.240Z,79.52
2023-02-18T01:18:48.376Z,80.36
2023-02-18T01:21:18.302Z,79.15
2023-02-18T01:23:46.264Z,80.45
2023-02-18T01:26:17.216Z,78.72
2023-02-18T01:28:45.264Z,78.54
2023-02-18T01:31:14.361Z,78.47
2023-02-18T01:33:42.654Z,78.09
2023-02-18T01:36:11.896Z,78.47
2023-02-18T01:38:41.254Z,77.84
2023-02-18T01:41:09.469Z,78.14
2023-02-18T01:43:39.724Z,77.52
2023-02-18T01:46:18.231Z,77.68
2023-02-18T01:48:51.330Z,77.47
2023-02-18T01:51:21.136Z,78.33
2023-02-18T01:53:55.011Z,78.61
2023-02-18T01:56:28.313Z,78.56
2023-02-18T01:59:00.957Z,78.43
2023-02-18T02:01:29.424Z,78.58
2023-02-18T02:03:57.427Z,79.53
2023-02-18T02:06:26.906Z,79.25
2023-02-18T02:09:00.650Z,78.80
2023-02-18T02:11:51.126Z,79.91
2023-02-18T02:14:37.048Z,78.61
2023-02-18T02:17:10.133Z,79.38
2023-02-18T02:20:19.354Z,78.70
2023-02-18T02:23:14.961Z,78.31
2023-02-18T02:26:18.064Z,79.42
2023-02-18T02:29:04.988Z,79.03
2023-02-18T02:31:51.857Z,79.61
2023-02-18T02:34:35.615Z,79.21
2023-02-18T02:37:13.549Z,79.50
2023-02-18T02:39:52.485Z,79.92
2023-02-18T02:42:27.459Z,79.57
2023-02-18T02:45:01.665Z,79.60
2023-02-18T02:47:38.724Z,80.17
2023-02-18T02:50:14.439Z,79.75
2023-02-18T02:52:47.660Z,80.58
2023-02-18T02:55:15.605Z,80.37
2023-02-18T02:57:51.549Z,80.75
2023-02-18T03:00:32.872Z,80.78
2023-02-18T03:03:36.014Z,81.12
2023-02-18T03:06:51.780Z,81.78
2023-02-18T03:09:30.544Z,82.39
2023-02-18T03:12:05.822Z,82.83
2023-02-18T03:14:45.109Z,83.85
2023-02-18T03:17:22.271Z,84.43
2023-02-18T03:19:56.406Z,85.78
2023-02-18T03:22:31.182Z,85.78
2023-02-18T03:25:02.021Z,86.22
2023-02-18T03:27:34.628Z,87.02
2023-02-18T03:30:07.871Z,87.38
2023-02-18T03:32:36.840Z,88.86
2023-02-18T03:35:09.365Z,88.05
2023-02-18T03:37:43.019Z,88.91
2023-02-18T03:40:11.433Z,89.42
2023-02-18T03:42:39.427Z,89.53
2023-02-18T03:45:08.711Z,89.64
2023-02-18T03:47:37.308Z,91.21
2023-02-18T03:50:05.971Z,91.69
2023-02-18T03:52:36.521Z,91.50
2023-02-18T03:55:07.066Z,92.00
2023-02-18T03:57:34.955Z,92.77
2023-02-18T04:00:03.764Z,92.88
2023-02-18T04:02:41.631Z,93.30
2023-02-18T04:05:10.567Z,94.79
2023-02-18T04:07:38.518Z,94.56
2023-02-18T04:10:09.444Z,96.69
2023-02-18T04:12:37.387Z,97.43
2023-02-18T04:15:06.102Z,98.71
2023-02-18T04:17:34.637Z,99.76
2023-02-18T04:20:04.551Z,99.58
2023-02-18T04:22:32.491Z,100.00
2023-02-18T04:25:00.527Z,100.00
2023-02-18T04:27:29.914Z,100.00
2023-02-18T04:29:58.112Z,100.00
2023-02-18T04:32:26.182Z,100.00
2023-02-18T04:34:54.255Z,100.00
2023-02-18T04:37:22.138Z,100.00
2023-02-18T04:39:50.016Z,100.00
2023-02-18T04:42:18.013Z,100.00
2023-02-18T04:44:47.658Z,100.00
2023-02-18T04:47:15.863Z,100.00
2023-02-18T04:49:43.754Z,100.00
2023-02-18T04:52:11.647Z,100.00
2023-02-18T04:54:39.625Z,100.00
2023-02-18T04:57:07.836Z,100.00
2023-02-18T04:59:35.753Z,100.00
2023-02-18T05:02:05.636Z,100.00
2023-02-18T05:04:33.632Z,100.00
2023-02-18T05:07:01.599Z,100.00
2023-02-18T05:09:29.472Z,100.00
2023-02-18T05:11:57.338Z,100.00
2023-02-18T05:14:25.307Z,100.00
2023-02-18T05:16:53.195Z,100.00
2023-02-18T05:19:22.507Z,100.00
2023-02-18T05:21:50.447Z,100.00
2023-02-18T05:24:18.356Z,100.00
2023-02-18T05:26:46.253Z,100.00
2023-02-18T05:29:14.238Z,100.00
2023-02-18T05:31:42.349Z,100.00
2023-02-18T05:34:10.350Z,100.00
2023-02-18T05:36:39.604Z,100.00
2023-02-18T05:39:07.424Z,100.00
2023-02-18T05:41:35.339Z,100.00
2023-02-18T05:44:20.816Z,100.00
2023-02-18T05:46:48.763Z,100.00
2023-02-18T05:49:16.696Z,100.00
2023-02-18T05:51:45.941Z,100.00
2023-02-18T05:54:13.876Z,100.00
2023-02-18T05:56:42.165Z,100.00
2023-02-18T05:59:10.057Z,100.00
2023-02-18T06:01:37.914Z,100.00
2023-02-18T06:04:06.071Z,100.00
2023-02-18T06:06:34.036Z,100.00
2023-02-18T06:09:03.681Z,100.00
2023-02-18T06:11:31.674Z,100.00
2023-02-18T06:13:59.722Z,100.00
2023-02-18T06:16:30.880Z,100.00
2023-02-18T06:18:59.007Z,100.00
2023-02-18T06:21:26.942Z,100.00
2023-02-18T06:23:54.928Z,100.00
2023-02-18T06:26:24.158Z,100.00
2023-02-18T06:28:52.012Z,100.00
2023-02-18T06:31:20.049Z,100.00
2023-02-18T06:33:48.016Z,100.00
2023-02-18T06:36:16.248Z,100.00
2023-02-18T06:38:46.323Z,100.00
2023-02-18T06:41:15.324Z,100.00
2023-02-18T06:43:44.633Z,100.00
2023-02-18T06:46:12.538Z,100.00
2023-02-18T06:48:40.501Z,100.00
2023-02-18T06:51:08.358Z,100.00
2023-02-18T06:53:36.240Z,100.00
2023-02-18T06:56:04.194Z,100.00
2023-02-18T06:58:32.143Z,100.00
2023-02-18T07:01:01.648Z,100.00
2023-02-18T07:03:29.676Z,100.00
2023-02-18T07:05:57.761Z,100.00
2023-02-18T07:08:25.607Z,100.00
2023-02-18T07:10:53.496Z,100.00
2023-02-18T07:13:21.361Z,100.00
2023-02-18T07:15:49.222Z,100.00
2023-02-18T07:18:18.700Z,100.00
2023-02-18T07:20:46.631Z,100.00
2023-02-18T07:23:14.585Z,100.00
2023-02-18T07:25:42.823Z,100.00
2023-02-18T07:28:12.490Z,100.00
2023-02-18T07:30:40.394Z,100.00
2023-02-18T07:33:08.348Z,100.00
2023-02-18T07:35:37.594Z,100.00
2023-02-18T07:38:05.678Z,100.00
2023-02-18T07:40:33.527Z,100.00
2023-02-18T07:43:01.467Z,100.00
2023-02-18T07:45:30.310Z,100.00
2023-02-18T07:47:58.177Z,100.00
2023-02-18T07:50:26.039Z,100.00
2023-02-18T07:52:55.404Z,100.00
2023-02-18T07:55:23.237Z,100.00
2023-02-18T07:58:02.216Z,100.00
2023-02-18T08:00:30.201Z,100.00
2023-02-18T08:02:58.044Z,100.00
2023-02-18T08:05:25.927Z,100.00
2023-02-18T08:07:55.176Z,100.00
2023-02-18T08:10:23.142Z,100.00
2023-02-18T08:12:51.078Z,100.00
2023-02-18T08:15:19.128Z,100.00
2023-02-18T08:17:47.039Z,100.00
2023-02-18T08:20:15.789Z,100.00
2023-02-18T08:22:43.754Z,100.00
2023-02-18T08:25:27.548Z,100.00
2023-02-18T08:27:57.658Z,100.00
2023-02-18T08:30:25.715Z,100.00
2023-02-18T08:32:53.844Z,100.00
2023-02-18T08:35:22.238Z,100.00
2023-02-18T08:37:52.569Z,100.00
2023-02-18T08:40:23.898Z,100.00
2023-02-18T08:42:51.789Z,100.00
2023-02-18T08:45:20.148Z,100.00
2023-02-18T08:48:17.728Z,100.00
2023-02-18T08:50:36.224Z,100.00
2023-02-18T08:53:04.589Z,100.00
2023-02-18T08:55:34.941Z,100.00
2023-02-18T08:58:05.126Z,100.00
2023-02-18T09:00:33.173Z,100.00
2023-02-18T09:03:01.068Z,100.00
2023-02-18T09:05:29.063Z,100.00
2023-02-18T09:07:56.993Z,100.00
2023-02-18T09:10:25.380Z,100.00
2023-02-18T09:12:54.649Z,100.00
2023-02-18T09:15:22.539Z,100.00
2023-02-18T09:17:50.502Z,100.00
2023-02-18T09:20:18.607Z,100.00
2023-02-18T09:22:46.560Z,100.00
2023-02-18T09:25:14.543Z,100.00
2023-02-18T09:27:42.399Z,100.00
2023-02-18T09:30:12.593Z,100.00
2023-02-18T09:32:40.561Z,100.00
2023-02-18T09:35:09.155Z,100.00
2023-02-18T09:37:38.164Z,100.00
2023-02-18T09:40:07.359Z,100.00
2023-02-18T09:42:36.451Z,100.00
2023-02-18T09:45:08.174Z,100.00
2023-02-18T09:47:43.564Z,100.00
2023-02-18T09:50:26.705Z,100.00
2023-02-18T09:52:55.060Z,100.00
2023-02-18T09:55:25.680Z,100.00
2023-02-18T09:57:55.775Z,100.00
2023-02-18T10:00:29.882Z,100.00
2023-02-18T10:03:02.863Z,100.00
2023-02-18T10:05:32.276Z,100.00
2023-02-18T10:08:05.292Z,100.00
2023-02-18T10:10:39.592Z,100.00
2023-02-18T10:13:13.774Z,100.00
2023-02-18T10:15:43.264Z,100.00
2023-02-18T10:18:22.745Z,100.00
2023-02-18T10:20:53.069Z,100.00
2023-02-18T10:23:22.442Z,100.00
2023-02-18T10:25:52.170Z,100.00
2023-02-18T10:28:23.866Z,100.00
2023-02-18T10:30:59.051Z,100.00
2023-02-18T10:33:36.434Z,100.00
2023-02-18T10:36:18.842Z,100.00
2023-02-18T10:39:02.139Z,100.00
2023-02-18T10:41:40.468Z,100.00
2023-02-18T10:44:15.697Z,100.00
2023-02-18T10:46:54.792Z,100.00
2023-02-18T10:49:49.376Z,100.00
2023-02-18T10:52:20.343Z,100.00
2023-02-18T10:54:54.481Z,100.00
2023-02-18T10:57:24.834Z,100.00
2023-02-18T10:59:58.499Z,100.00
2023-02-18T11:02:30.818Z,100.00
2023-02-18T11:05:06.462Z,100.00
2023-02-18T11:07:39.571Z,100.00
2023-02-18T11:10:20.858Z,100.00
2023-02-18T11:12:51.313Z,100.00
2023-02-18T11:15:23.485Z,100.00
2023-02-18T11:17:53.969Z,100.00
2023-02-18T11:20:31.387Z,100.00
2023-02-18T11:23:20.289Z,100.00
2023-02-18T11:25:57.326Z,100.00
2023-02-18T11:28:45.623Z,100.00
2023-02-18T11:31:21.834Z,100.00
2023-02-18T11:33:53.239Z,100.00
2023-02-18T11:36:26.503Z,100.00
2023-02-18T11:38:57.326Z,100.00
2023-02-18T11:41:33.984Z,100.00
2023-02-18T11:44:03.848Z,100.00
2023-02-18T11:46:31.843Z,100.00
2023-02-18T11:49:21.316Z,100.00
2023-02-18T11:51:51.490Z,100.00
2023-02-18T11:54:26.738Z,100.00
2023-02-18T11:57:00.619Z,100.00
2023-02-18T11:59:30.476Z,100.00
2023-02-18T12:02:03.809Z,100.00
2023-02-18T12:04:39.012Z,100.00
2023-02-18T12:07:16.462Z,100.00
2023-02-18T12:09:48.444Z,100.00
2023-02-18T12:12:20.667Z,100.00
2023-02-18T12:14:48.581Z,100.00
2023-02-18T12:17:32.496Z,100.00
2023-02-18T12:20:15.737Z,100.00
2023-02-18T12:22:47.011Z,100.00
2023-02-18T12:25:41.545Z,100.00
2023-02-18T12:28:24.873Z,100.00
2023-02-18T12:31:25.120Z,100.00
2023-02-18T12:34:29.699Z,100.00
2023-02-18T12:37:09.476Z,100.00
2023-02-18T12:39:55.826Z,100.00
2023-02-18T12:42:35.667Z,100.00
2023-02-18T12:45:29.619Z,100.00
2023-02-18T12:48:16.221Z,100.00
2023-02-18T12:50:57.458Z,100.00
2023-02-18T12:53:54.496Z,100.00
2023-02-18T12:57:04.759Z,100.00
2023-02-18T12:59:52.232Z,100.00
2023-02-18T13:02:37.596Z,100.00
2023-02-18T13:05:12.182Z,100.00
2023-02-18T13:07:59.812Z,100.00
2023-02-18T13:10:45.599Z,100.00
2023-02-18T13:13:19.599Z,100.00
2023-02-18T13:15:54.109Z,100.00
2023-02-18T13:18:26.662Z,100.00
2023-02-18T13:20:57.233Z,100.00
2023-02-18T13:23:29.354Z,100.00
2023-02-18T13:26:01.274Z,100.00
2023-02-18T13:28:38.482Z,100.00
2023-02-18T13:31:20.814Z,100.00
2023-02-18T13:33:57.898Z,100.00
2023-02-18T13:36:37.724Z,100.00
2023-02-18T13:39:08.387Z,100.00
2023-02-18T13:41:38.240Z,100.00
2023-02-18T13:44:40.812Z,100.00
2023-02-18T13:47:09.917Z,100.00
2023-02-18T13:49:40.867Z,100.00
2023-02-18T13:52:20.335Z,100.00
2023-02-18T13:54:51.758Z,100.00
2023-02-18T13:57:22.898Z,100.00
2023-02-18T13:59:58.193Z,100.00
2023-02-18T14:02:35.069Z,100.00
2023-02-18T14:05:22.933Z,100.00
2023-02-18T14:07:53.795Z,100.00
2023-02-18T14:10:37.675Z,100.00
2023-02-18T14:13:24.960Z,100.00
2023-02-18T14:16:01.857Z,100.00
2023-02-18T14:19:01.472Z,100.00
2023-02-18T14:21:43.677Z,100.00
2023-02-18T14:24:13.168Z,100.00
2023-02-18T14:26:46.526Z,100.00
2023-02-18T14:29:23.540Z,100.00
2023-02-18T14:31:57.419Z,100.00
2023-02-18T14:35:04.328Z,100.00
2023-02-18T14:38:02.759Z,100.00
2023-02-18T14:41:05.357Z,100.00
2023-02-18T14:43:45.207Z,100.00
2023-02-18T14:46:25.544Z,100.00
2023-02-18T14:49:21.582Z,100.00
2023-02-18T14:51:51.126Z,100.00
2023-02-18T14:54:22.020Z,100.00
2023-02-18T14:56:57.108Z,100.00
2023-02-18T14:59:28.361Z,100.00
2023-02-18T15:01:57.426Z,100.00
2023-02-18T15:04:27.566Z,100.00
2023-02-18T15:07:04.833Z,100.00
2023-02-18T15:09:32.984Z,100.00
2023-02-18T15:12:04.482Z,100.00
2023-02-18T15:14:35.448Z,100.00
2023-02-18T15:17:05.059Z,100.00
2023-02-18T15:19:41.128Z,100.00
2023-02-18T15:22:17.915Z,100.00
2023-02-18T15:24:46.408Z,100.00
2023-02-18T15:27:17.050Z,100.00
2023-02-18T15:29:44.983Z,100.00
2023-02-18T15:32:18.805Z,100.00
2023-02-18T15:34:52.286Z,100.00
2023-02-18T15:37:20.399Z,100.00
2023-02-18T15:39:48.633Z,100.00
2023-02-18T15:42:26.001Z,100.00
2023-02-18T15:44:58.052Z,100.00
2023-02-18T15:47:26.456Z,100.00
2023-02-18T15:49:57.934Z,100.00
2023-02-18T15:52:28.931Z,100.00
2023-02-18T15:55:01.751Z,100.00
2023-02-18T15:57:31.633Z,100.00
2023-02-18T16:00:05.563Z,100.00
2023-02-18T16:02:35.091Z,100.00
2023-02-18T16:05:05.503Z,100.00
2023-02-18T16:07:39.420Z,100.00
2023-02-18T16:10:14.386Z,100.00
2023-02-18T16:12:42.876Z,100.00
2023-02-18T16:15:17.064Z,100.00
2023-02-18T16:17:46.039Z,100.00
2023-02-18T16:20:27.683Z,100.00
2023-02-18T16:22:56.525Z,100.00
2023-02-18T16:25:27.346Z,100.00
2023-02-18T16:28:05.105Z,100.00
2023-02-18T16:30:35.410Z,100.00
2023-02-18T16:33:03.331Z,100.00
2023-02-18T16:35:48.503Z,100.00
2023-02-18T16:38:19.125Z,100.00
2023-02-18T16:40:47.092Z,100.00
2023-02-18T16:43:17.127Z,100.00
2023-02-18T16:45:49.602Z,100.00
2023-02-18T16:48:21.599Z,100.00
2023-02-18T16:50:51.823Z,100.00
2023-02-18T16:53:20.115Z,100.00
2023-02-18T16:55:49.894Z,100.00
2023-02-18T16:58:17.815Z,100.00
2023-02-18T17:00:47.251Z,100.00
2023-02-18T17:03:15.480Z,100.00
2023-02-18T17:05:43.367Z,100.00
2023-02-18T17:08:19.235Z,100.00
2023-02-18T17:10:48.249Z,100.00
2023-02-18T17:13:16.685Z,100.00
2023-02-18T17:15:47.576Z,100.00
2023-02-18T17:18:15.784Z,100.00
2023-02-18T17:20:43.731Z,100.00
2023-02-18T17:23:15.427Z,100.00
2023-02-18T17:25:45.493Z,100.00
2023-02-18T17:28:13.370Z,100.00
2023-02-18T17:30:42.891Z,100.00
2023-02-18T17:33:15.417Z,100.00
2023-02-18T17:35:43.942Z,100.00
2023-02-18T17:38:12.264Z,100.00
2023-02-18T17:40:40.236Z,100.00
2023-02-18T17:43:13.162Z,100.00
2023-02-18T17:45:45.596Z,100.00
2023-02-18T17:48:13.517Z,100.00
2023-02-18T17:50:41.696Z,100.00
2023-02-18T17:53:11.591Z,100.00
2023-02-18T17:55:40.602Z,100.00
2023-02-18T17:58:10.247Z,100.00
2023-02-18T18:00:40.353Z,100.00
2023-02-18T18:03:09.247Z,100.00
2023-02-18T18:05:39.675Z,100.00
2023-02-18T18:08:09.161Z,100.00
2023-02-18T18:10:38.788Z,100.00
2023-02-18T18:13:15.805Z,100.00
2023-02-18T18:15:45.195Z,100.00
2023-02-18T18:18:14.374Z,100.00
2023-02-18T18:20:46.379Z,100.00
2023-02-18T18:23:17.029Z,100.00
2023-02-18T18:25:47.256Z,100.00
2023-02-18T18:28:16.799Z,100.00
2023-02-18T18:30:47.096Z,100.00
2023-02-18T18:33:17.656Z,100.00
2023-02-18T18:35:47.888Z,100.00
2023-02-18T18:38:15.828Z,100.00
2023-02-18T18:40:44.961Z,100.00
2023-02-18T18:43:20.926Z,100.00
2023-02-18T18:45:49.766Z,99.09
2023-02-18T18:48:18.367Z,99.74
2023-02-18T18:50:46.283Z,99.38
2023-02-18T18:53:19.283Z,100.00
2023-02-18T18:55:47.809Z,100.00
2023-02-18T18:58:20.513Z,98.27
2023-02-18T19:00:51.694Z,98.40
2023-02-18T19:03:21.008Z,99.27
2023-02-18T19:05:49.681Z,98.61
2023-02-18T19:08:20.210Z,98.31
2023-02-18T19:10:50.330Z,100.00
2023-02-18T19:13:20.643Z,100.00
2023-02-18T19:15:51.595Z,99.22
2023-02-18T19:18:21.394Z,100.00
2023-02-18T19:20:49.622Z,100.00
2023-02-18T19:23:17.550Z,99.62
2023-02-18T19:25:45.544Z,100.00
2023-02-18T19:28:14.668Z,99.78
2023-02-18T19:30:43.424Z,100.00
2023-02-18T19:33:14.947Z,99.02
2023-02-18T19:35:44.413Z,98.43
2023-02-18T19:38:13.987Z,98.12
2023-02-18T19:40:42.324Z,99.23
2023-02-18T19:43:10.646Z,98.64
2023-02-18T19:45:42.943Z,99.41
2023-02-18T19:48:12.288Z,99.76
2023-02-18T19:50:42.995Z,100.00
2023-02-18T19:53:11.167Z,100.00
2023-02-18T19:55:39.102Z,100.00
2023-02-18T19:58:07.076Z,100.00
2023-02-18T20:00:35.180Z,100.00
2023-02-18T20:03:03.115Z,100.00
2023-02-18T20:05:31.057Z,99.79
2023-02-18T20:08:00.373Z,100.00
2023-02-18T20:10:29.193Z,99.82
2023-02-18T20:12:57.114Z,100.00
2023-02-18T20:15:25.351Z,100.00
2023-02-18T20:17:53.601Z,100.00
2023-02-18T20:20:21.557Z,100.00
2023-02-18T20:22:49.447Z,100.00
2023-02-18T20:25:18.785Z,100.00
2023-02-18T20:27:59.794Z,100.00
2023-02-18T20:30:28.785Z,100.00
2023-02-18T20:32:56.729Z,100.00
2023-02-18T20:35:24.819Z,100.00
2023-02-18T20:37:52.754Z,100.00
2023-02-18T20:40:22.039Z,100.00
2023-02-18T20:42:49.945Z,100.00
2023-02-18T20:45:17.940Z,100.00
2023-02-18T20:47:46.125Z,100.00
2023-02-18T20:50:14.060Z,100.00
2023-02-18T20:52:41.938Z,100.00
2023-02-18T20:55:09.838Z,100.00
2023-02-18T20:57:39.080Z,100.00
2023-02-18T21:00:08.112Z,100.00
2023-02-18T21:02:36.073Z,100.00
2023-02-18T21:05:03.996Z,100.00
2023-02-18T21:07:32.032Z,100.00
2023-02-18T21:09:59.946Z,100.00
2023-02-18T21:12:29.145Z,100.00
2023-02-18T21:14:58.365Z,100.00
2023-02-18T21:17:26.295Z,100.00
2023-02-18T21:19:54.170Z,100.00
2023-02-18T21:22:22.093Z,100.00
2023-02-18T21:24:51.252Z,100.00
2023-02-18T21:27:19.243Z,100.00
2023-02-18T21:29:47.184Z,100.00
2023-02-18T21:32:16.558Z,100.00
2023-02-18T21:34:44.531Z,100.00
2023-02-18T21:37:12.465Z,100.00
2023-02-18T21:39:40.346Z,100.00
2023-02-18T21:42:08.350Z,100.00
2023-02-18T21:44:42.222Z,100.00
2023-02-18T21:47:11.152Z,100.00
2023-02-18T21:49:40.506Z,100.00
2023-02-18T21:52:11.113Z,100.00
2023-02-18T21:54:41.210Z,100.00
2023-02-18T21:57:11.702Z,100.00
2023-02-18T21:59:40.319Z,100.00
2023-02-18T22:02:13.158Z,100.00
2023-02-18T22:04:42.495Z,100.00
2023-02-18T22:07:10.409Z,100.00
2023-02-18T22:09:38.835Z,100.00
2023-02-18T22:12:07.646Z,100.00
2023-02-18T22:14:35.733Z,100.00
2023-02-18T22:17:03.625Z,100.00
2023-02-18T22:19:31.609Z,100.00
2023-02-18T22:22:02.504Z,100.00
2023-02-18T22:24:31.028Z,100.00
2023-02-18T22:27:01.369Z,100.00
2023-02-18T22:29:30.580Z,100.00
2023-02-18T22:31:58.565Z,100.00
2023-02-18T22:34:26.771Z,100.00
2023-02-18T22:36:54.818Z,100.00
2023-02-18T22:39:24.316Z,100.00
2023-02-18T22:41:52.198Z,100.00
2023-02-18T22:44:20.276Z,100.00
2023-02-18T22:46:48.257Z,100.00
2023-02-18T22:49:16.190Z,100.00
2023-02-18T22:51:45.512Z,100.00
2023-02-18T22:54:15.783Z,100.00
2023-02-18T22:56:46.102Z,100.00
2023-02-18T22:59:15.455Z,100.00
2023-02-18T23:01:49.085Z,100.00
2023-02-18T23:04:18.962Z,100.00
2023-02-18T23:06:48.062Z,100.00
2023-02-18T23:09:17.961Z,100.00
2023-02-18T23:11:51.195Z,100.00
2023-02-18T23:14:19.511Z,100.00
2023-02-18T23:17:06.792Z,100.00
2023-02-18T23:19:35.919Z,100.00
2023-02-18T23:22:04.057Z,100.00
2023-02-18T23:24:34.124Z,100.00
2023-02-18T23:27:04.358Z,100.00
2023-02-18T23:29:33.451Z,100.00
2023-02-18T23:32:01.669Z,100.00
2023-02-18T23:34:29.931Z,100.00
2023-02-18T23:36:58.315Z,100.00
2023-02-18T23:39:26.788Z,100.00
2023-02-18T23:41:54.759Z,100.00
2023-02-18T23:44:25.866Z,100.00
2023-02-18T23:46:54.295Z,100.00
2023-02-18T23:49:23.966Z,100.00
2023-02-18T23:51:52.610Z,100.00
2023-02-18T23:54:21.396Z,100.00
2023-02-18T23:56:49.275Z,100.00
2023-02-18T23:59:17.611Z,100.00
